Time;durP1;ratioP1;P1;durP2;ratioP2;P2;SDS_P1;SDS_P2;PMS_P1;PMS_P2;Temp;Humidity;BMP_temperature;BMP_pressure;BME280_temperature;BME280_humidity;BME280_pressure;Samples;Min_cycle;Max_cycle;Signal;HPM_P1;HPM_P2
2023/12/28 00:01:06;;;;;;;49.10;25.00;;;;;;;1.96;98.40;100992.33;106345;1262;102012;-81
2023/12/28 00:03:52;;;;;;;44.30;24.90;;;;;;;1.96;98.24;100979.80;106035;1264;99136;-80
2023/12/28 00:06:37;;;;;;;51.40;25.80;;;;;;;1.98;98.19;100980.95;106048;1263;99001;-81
2023/12/28 00:09:23;;;;;;;48.10;25.50;;;;;;;1.98;98.24;100970.36;106079;1267;96346;-81
2023/12/28 00:12:09;;;;;;;56.70;28.80;;;;;;;1.99;98.35;100949.46;105897;1262;97996;-78
2023/12/28 00:14:55;;;;;;;56.90;27.60;;;;;;;2.00;98.45;100951.02;105953;1267;102625;-80
2023/12/28 00:17:40;;;;;;;56.20;26.20;;;;;;;1.97;98.52;100951.05;105915;1264;99329;-79
2023/12/28 00:20:26;;;;;;;58.60;26.30;;;;;;;1.95;98.68;100949.09;105903;1267;99045;-77
2023/12/28 00:23:11;;;;;;;47.40;24.20;;;;;;;1.94;98.97;100955.91;105361;1267;97945;-81
2023/12/28 00:25:56;;;;;;;46.30;22.30;;;;;;;1.91;99.18;100964.39;105546;1265;98016;-79
2023/12/28 00:28:42;;;;;;;50.90;22.20;;;;;;;1.87;99.12;100968.42;105503;1264;101412;-79
2023/12/28 00:31:27;;;;;;;40.90;20.70;;;;;;;1.84;99.30;100975.16;105494;1266;99117;-79
2023/12/28 00:34:13;;;;;;;49.70;22.30;;;;;;;1.82;99.59;100973.83;105792;1267;98418;-80
2023/12/28 00:36:58;;;;;;;45.30;21.50;;;;;;;1.78;99.58;100969.17;105972;1264;97971;-80
2023/12/28 00:39:46;;;;;;;51.80;21.50;;;;;;;1.76;99.69;100968.45;105991;1267;97802;-79
2023/12/28 00:42:32;;;;;;;46.70;20.90;;;;;;;1.77;99.84;100973.29;105866;1263;101476;-81
2023/12/28 00:45:18;;;;;;;46.40;21.80;;;;;;;1.80;99.99;100966.70;105694;1267;99108;-80
2023/12/28 00:48:04;;;;;;;44.70;22.00;;;;;;;1.82;99.96;100950.52;105839;1264;97914;-80
2023/12/28 00:50:49;;;;;;;36.40;20.00;;;;;;;1.84;99.81;100944.89;105814;1264;97975;-81
2023/12/28 00:53:34;;;;;;;40.40;20.00;;;;;;;1.84;99.73;100941.40;105809;1263;98506;-80
2023/12/28 00:56:21;;;;;;;44.80;20.30;;;;;;;1.83;99.81;100935.80;105916;1262;101995;-80
2023/12/28 00:59:06;;;;;;;47.30;22.30;;;;;;;1.82;99.68;100935.89;105961;1264;99939;-80
2023/12/28 01:01:52;;;;;;;35.50;18.30;;;;;;;1.82;99.71;100930.12;105785;1263;98861;-81
2023/12/28 01:04:37;;;;;;;41.10;20.20;;;;;;;1.83;99.90;100925.77;106307;1263;97911;-81
2023/12/28 01:07:23;;;;;;;39.40;18.90;;;;;;;1.85;99.95;100928.12;105800;1267;99038;-80
2023/12/28 01:10:10;;;;;;;37.00;19.30;;;;;;;1.87;99.87;100924.25;105893;1267;103065;-80
2023/12/28 01:12:55;;;;;;;42.20;19.00;;;;;;;1.87;99.82;100923.14;105915;1264;99189;-80
2023/12/28 01:15:41;;;;;;;38.70;19.50;;;;;;;1.87;99.84;100926.20;105763;1263;99093;-80
2023/12/28 01:18:27;;;;;;;48.00;20.10;;;;;;;1.87;99.76;100923.50;105947;1267;97954;-83
2023/12/28 01:21:12;;;;;;;36.90;19.70;;;;;;;1.88;99.54;100927.54;106468;1263;98445;-81
2023/12/28 01:23:59;;;;;;;35.30;19.20;;;;;;;1.87;99.49;100921.73;106236;1264;101488;-81
2023/12/28 01:26:45;;;;;;;40.60;18.40;;;;;;;1.86;99.31;100914.61;106291;1263;99082;-80
2023/12/28 01:29:30;;;;;;;37.50;18.70;;;;;;;1.85;99.25;100914.00;106271;1264;97779;-81
2023/12/28 01:32:15;;;;;;;38.70;18.30;;;;;;;1.84;99.17;100911.46;105904;1264;97940;-80
2023/12/28 01:35:01;;;;;;;41.60;19.10;;;;;;;1.85;99.29;100915.25;105990;1266;98499;-80
2023/12/28 01:37:47;;;;;;;42.90;19.40;;;;;;;1.84;99.18;100905.98;105821;1263;101371;-79
2023/12/28 01:40:32;;;;;;;44.60;19.20;;;;;;;1.83;99.28;100898.35;105889;1263;100172;-80
2023/12/28 01:43:18;;;;;;;44.10;19.30;;;;;;;1.83;99.27;100888.67;105747;1263;98058;-80
2023/12/28 01:46:05;;;;;;;34.00;18.00;;;;;;;1.83;99.20;100876.52;105815;1264;99168;-80
2023/12/28 01:48:51;;;;;;;39.50;19.80;;;;;;;1.81;99.14;100867.98;105929;1263;98487;-80
2023/12/28 01:51:38;;;;;;;32.70;17.70;;;;;;;1.81;99.27;100862.56;105893;1263;101827;-79
2023/12/28 01:54:24;;;;;;;39.90;17.80;;;;;;;1.80;99.24;100859.33;106049;1264;99139;-81
2023/12/28 01:57:10;;;;;;;40.70;19.30;;;;;;;1.79;99.45;100844.98;106322;1264;98981;-81
2023/12/28 01:59:58;;;;;;;39.20;19.50;;;;;;;1.77;99.45;100821.71;106131;1267;97867;-80
2023/12/28 02:02:45;;;;;;;37.10;18.40;;;;;;;1.74;99.54;100808.04;106301;1263;98407;-79
2023/12/28 02:05:30;;;;;;;38.40;19.70;;;;;;;1.71;99.43;100800.42;106142;1263;101395;-78
2023/12/28 02:08:18;;;;;;;36.30;18.40;;;;;;;1.67;99.48;100791.90;105825;1266;99290;-80
2023/12/28 02:11:04;;;;;;;46.20;19.50;;;;;;;1.67;99.71;100791.27;106483;1264;98568;-81
2023/12/28 02:13:49;;;;;;;37.20;19.10;;;;;;;1.65;99.75;100789.98;106286;1267;97914;-79
2023/12/28 02:16:44;;;;;;;44.30;19.90;;;;;;;1.59;99.67;100788.17;105698;1264;98881;-79
2023/12/28 02:19:52;;;;;;;41.90;18.80;;;;;;;1.56;99.92;100791.02;105640;1267;102874;-81
2023/12/28 02:22:40;;;;;;;37.00;18.50;;;;;;;1.54;99.97;100796.51;106309;1262;100395;-80
2023/12/28 02:25:25;;;;;;;42.70;17.20;;;;;;;1.53;99.97;100795.01;106272;1267;98463;-80
2023/12/28 02:28:11;;;;;;;44.50;18.70;;;;;;;1.53;99.99;100795.11;106329;1267;97619;-80
2023/12/28 02:30:57;;;;;;;39.20;18.30;;;;;;;1.55;99.98;100796.39;106290;1263;96979;-81
2023/12/28 02:33:54;;;;;;;40.10;17.50;;;;;;;1.55;99.91;100788.32;105878;1267;101467;-81
2023/12/28 02:36:42;;;;;;;37.90;17.00;;;;;;;1.53;99.89;100784.07;106666;1264;100884;-80
2023/12/28 02:39:30;;;;;;;38.30;19.20;;;;;;;1.51;99.95;100772.40;105874;1262;99114;-80
2023/12/28 02:42:15;;;;;;;40.00;19.80;;;;;;;1.52;99.89;100767.42;105858;1266;97848;-80
2023/12/28 02:45:01;;;;;;;40.90;19.70;;;;;;;1.54;99.92;100764.46;105963;1266;97980;-81
2023/12/28 02:47:46;;;;;;;43.50;20.60;;;;;;;1.56;99.87;100757.83;105841;1267;101410;-80
2023/12/28 02:50:33;;;;;;;39.00;18.30;;;;;;;1.57;99.81;100760.19;105974;1266;99118;-80
2023/12/28 02:53:20;;;;;;;32.80;17.00;;;;;;;1.58;99.84;100759.40;106184;1263;98338;-80
2023/12/28 02:56:06;;;;;;;42.10;18.50;;;;;;;1.58;99.85;100752.90;106082;1262;97879;-80
2023/12/28 02:58:51;;;;;;;39.00;18.80;;;;;;;1.57;99.76;100748.33;105623;1262;97863;-80
2023/12/28 03:01:36;;;;;;;38.60;17.70;;;;;;;1.57;99.80;100742.92;105627;1264;101367;-79
2023/12/28 03:04:22;;;;;;;38.50;17.50;;;;;;;1.57;99.82;100735.33;105668;1263;99169;-80
2023/12/28 03:07:08;;;;;;;30.40;15.90;;;;;;;1.58;99.74;100731.75;105618;1263;99117;-81
2023/12/28 03:09:53;;;;;;;35.90;16.00;;;;;;;1.58;99.81;100728.20;105774;1267;98012;-80
2023/12/28 03:12:39;;;;;;;33.70;16.20;;;;;;;1.61;99.76;100729.98;105902;1267;98534;-80
2023/12/28 03:15:24;;;;;;;29.70;13.70;;;;;;;1.60;99.59;100724.22;106448;1262;101519;-80
2023/12/28 03:18:10;;;;;;;35.40;14.80;;;;;;;1.58;99.40;100715.70;106250;1264;99222;-80
2023/12/28 03:20:56;;;;;;;25.50;14.00;;;;;;;1.58;99.48;100710.65;105533;1267;98807;-79
2023/12/28 03:23:41;;;;;;;32.60;14.60;;;;;;;1.58;99.56;100710.43;105613;1267;97978;-80
2023/12/28 03:26:26;;;;;;;31.40;14.40;;;;;;;1.57;99.48;100701.56;106031;1266;98522;-80
2023/12/28 03:29:12;;;;;;;28.60;13.90;;;;;;;1.56;99.45;100686.89;106137;1264;101506;-80
2023/12/28 03:31:58;;;;;;;26.40;14.00;;;;;;;1.54;99.51;100676.11;106348;1262;100277;-81
2023/12/28 03:34:44;;;;;;;27.00;12.80;;;;;;;1.53;99.58;100680.21;106303;1262;99023;-82
2023/12/28 03:37:30;;;;;;;28.00;12.10;;;;;;;1.54;99.58;100675.39;106275;1264;97921;-81
2023/12/28 03:40:15;;;;;;;26.00;10.90;;;;;;;1.55;99.56;100672.81;106069;1269;99662;-80
2023/12/28 03:43:01;;;;;;;31.30;12.70;;;;;;;1.56;99.52;100673.15;106412;1262;102354;-80
2023/12/28 03:45:47;;;;;;;25.80;11.00;;;;;;;1.56;99.62;100667.28;105918;1267;99202;-80
2023/12/28 03:48:32;;;;;;;24.90;10.30;;;;;;;1.59;99.42;100665.01;105864;1267;98012;-82
2023/12/28 03:51:18;;;;;;;29.30;12.10;;;;;;;1.60;99.55;100655.73;106331;1264;97993;-80
2023/12/28 03:54:03;;;;;;;23.30;11.00;;;;;;;1.62;99.43;100646.23;106308;1263;97917;-79
2023/12/28 03:56:48;;;;;;;30.90;11.30;;;;;;;1.59;99.14;100634.33;105895;1267;101432;-81
2023/12/28 03:59:34;;;;;;;22.20;10.40;;;;;;;1.59;99.16;100628.89;106359;1264;99266;-80
2023/12/28 04:02:19;;;;;;;24.20;11.40;;;;;;;1.58;99.06;100631.56;106257;1262;99509;-80
2023/12/28 04:05:06;;;;;;;26.70;11.20;;;;;;;1.58;99.08;100619.11;105384;1269;95843;-81
2023/12/28 04:07:53;;;;;;;23.80;9.90;;;;;;;1.57;99.02;100611.98;105592;1267;98556;-80
2023/12/28 04:10:38;;;;;;;21.10;10.30;;;;;;;1.59;99.11;100612.18;105716;1267;101364;-80
2023/12/28 04:13:24;;;;;;;20.20;9.60;;;;;;;1.60;99.04;100612.23;105439;1262;99121;-80
2023/12/28 04:16:13;;;;;;;22.40;9.80;;;;;;;1.61;98.94;100610.98;105542;1263;97909;-79
2023/12/28 04:19:00;;;;;;;25.90;10.80;;;;;;;1.60;98.82;100613.63;105682;1267;99256;-81
2023/12/28 04:21:45;;;;;;;22.20;10.10;;;;;;;1.59;98.71;100614.98;106344;1263;97859;-81
2023/12/28 04:24:31;;;;;;;21.70;8.90;;;;;;;1.60;98.81;100610.65;106334;1264;101402;-80
2023/12/28 04:27:17;;;;;;;20.00;9.40;;;;;;;1.61;98.67;100600.44;105862;1262;100443;-81
2023/12/28 04:30:05;;;;;;;21.00;10.00;;;;;;;1.59;98.72;100593.68;106278;1262;99101;-81
2023/12/28 04:32:51;;;;;;;20.80;9.00;;;;;;;1.60;98.82;100588.90;105705;1262;98067;-80
2023/12/28 04:35:36;;;;;;;19.10;9.30;;;;;;;1.60;98.87;100588.13;105614;1262;98494;-80
2023/12/28 04:38:22;;;;;;;23.30;9.70;;;;;;;1.60;98.74;100579.52;105757;1263;101362;-80
2023/12/28 04:41:09;;;;;;;21.60;9.80;;;;;;;1.60;98.63;100574.11;105601;1267;99208;-80
2023/12/28 04:43:55;;;;;;;22.80;10.70;;;;;;;1.61;98.66;100561.34;105452;1267;99051;-79
2023/12/28 04:46:44;;;;;;;20.10;10.00;;;;;;;1.63;98.64;100553.42;105496;1267;98014;-79
2023/12/28 04:49:29;;;;;;;23.80;10.70;;;;;;;1.63;98.47;100549.89;105814;1262;98444;-80
2023/12/28 04:52:15;;;;;;;25.40;11.80;;;;;;;1.62;98.49;100543.61;106359;1266;101462;-80
2023/12/28 04:55:00;;;;;;;23.30;11.60;;;;;;;1.63;98.39;100534.56;106308;1263;100685;-80
2023/12/28 04:57:46;;;;;;;26.10;11.80;;;;;;;1.64;98.30;100526.05;106130;1262;98027;-79
2023/12/28 05:00:32;;;;;;;26.90;11.10;;;;;;;1.64;98.21;100516.02;106303;1263;97904;-81
2023/12/28 05:03:18;;;;;;;22.40;10.30;;;;;;;1.65;98.43;100517.30;106081;1267;98045;-81
2023/12/28 05:06:05;;;;;;;21.30;9.40;;;;;;;1.66;98.58;100515.86;106154;1263;101358;-81
2023/12/28 05:08:50;;;;;;;21.40;9.40;;;;;;;1.66;98.45;100510.23;106169;1264;100408;-80
2023/12/28 05:11:36;;;;;;;21.10;9.60;;;;;;;1.66;98.57;100504.23;105636;1265;99129;-80
2023/12/28 05:14:21;;;;;;;17.00;8.30;;;;;;;1.68;98.79;100493.50;106232;1263;97877;-81
2023/12/28 05:17:07;;;;;;;19.60;9.10;;;;;;;1.69;98.75;100486.51;106173;1264;96474;-80
2023/12/28 05:19:52;;;;;;;18.70;9.10;;;;;;;1.69;98.58;100476.14;106362;1263;101416;-80
2023/12/28 05:22:38;;;;;;;17.90;8.60;;;;;;;1.70;98.76;100465.89;105686;1267;100026;-79
2023/12/28 05:25:24;;;;;;;19.90;8.70;;;;;;;1.71;98.79;100462.23;105715;1267;98450;-80
2023/12/28 05:28:09;;;;;;;18.50;9.50;;;;;;;1.72;98.79;100464.95;105677;1264;97998;-81
2023/12/28 05:30:55;;;;;;;18.20;9.60;;;;;;;1.73;98.91;100452.70;105655;1265;97840;-80
2023/12/28 05:33:40;;;;;;;19.60;9.40;;;;;;;1.74;99.03;100448.79;105727;1265;102736;-81
2023/12/28 05:36:26;;;;;;;21.90;10.10;;;;;;;1.75;99.10;100449.08;105812;1262;99123;-81
2023/12/28 05:39:13;;;;;;;20.30;11.00;;;;;;;1.76;99.08;100442.45;106249;1267;98445;-79
2023/12/28 05:41:59;;;;;;;26.90;12.40;;;;;;;1.77;99.12;100441.09;106230;1266;98574;-80
2023/12/28 05:44:44;;;;;;;20.10;9.40;;;;;;;1.77;99.08;100445.66;105753;1267;99231;-80
2023/12/28 05:47:30;;;;;;;25.90;9.60;;;;;;;1.78;99.25;100447.33;105801;1262;102742;-80
2023/12/28 05:50:16;;;;;;;22.00;11.00;;;;;;;1.80;99.37;100446.80;105655;1262;99233;-80
2023/12/28 05:53:02;;;;;;;19.80;9.60;;;;;;;1.79;99.27;100447.08;105493;1267;98535;-81
2023/12/28 05:55:48;;;;;;;28.40;10.50;;;;;;;1.79;99.42;100443.92;106307;1264;98772;-80
2023/12/28 05:58:34;;;;;;;27.20;12.30;;;;;;;1.79;99.63;100446.55;106253;1264;98042;-80
2023/12/28 06:01:19;;;;;;;23.50;11.10;;;;;;;1.80;99.91;100446.61;106297;1262;103106;-81
2023/12/28 06:04:05;;;;;;;23.90;11.10;;;;;;;1.83;99.94;100455.17;105748;1265;100452;-81
2023/12/28 06:06:50;;;;;;;21.40;11.50;;;;;;;1.86;100.00;100455.50;106243;1264;99008;-80
2023/12/28 06:09:38;;;;;;;28.30;13.30;;;;;;;1.88;100.00;100461.48;105658;1264;98001;-80
2023/12/28 06:12:24;;;;;;;25.40;11.60;;;;;;;1.90;100.00;100465.13;105770;1266;98035;-79
2023/12/28 06:15:10;;;;;;;28.90;11.30;;;;;;;1.92;100.00;100453.15;105790;1264;102869;-81
2023/12/28 06:17:55;;;;;;;23.70;11.30;;;;;;;1.94;100.00;100433.23;105807;1264;99993;-82
2023/12/28 06:20:40;;;;;;;19.50;11.10;;;;;;;1.95;100.00;100425.91;105872;1266;98012;-81
2023/12/28 06:23:26;;;;;;;28.80;12.40;;;;;;;1.97;100.00;100431.41;105649;1264;97989;-80
2023/12/28 06:26:12;;;;;;;31.50;14.30;;;;;;;1.97;99.98;100434.70;105796;1264;98588;-81
2023/12/28 06:28:58;;;;;;;29.30;13.80;;;;;;;1.98;99.91;100426.38;106389;1264;101411;-81
2023/12/28 06:31:43;;;;;;;24.70;13.10;;;;;;;1.98;99.90;100417.05;106272;1264;100322;-80
2023/12/28 06:34:29;;;;;;;20.90;12.10;;;;;;;1.98;100.00;100416.70;105652;1267;97997;-81
2023/12/28 06:37:15;;;;;;;25.00;13.60;;;;;;;1.99;100.00;100423.30;106275;1264;98055;-80
2023/12/28 06:40:01;;;;;;;25.10;13.40;;;;;;;2.00;100.00;100423.53;106312;1262;98180;-81
2023/12/28 06:42:46;;;;;;;25.80;13.50;;;;;;;2.01;100.00;100427.45;105587;1263;102641;-79
2023/12/28 06:45:31;;;;;;;26.70;12.50;;;;;;;2.01;100.00;100422.16;106241;1262;99234;-81
2023/12/28 06:48:17;;;;;;;28.80;14.00;;;;;;;2.01;100.00;100420.94;106262;1264;98505;-81
2023/12/28 06:51:03;;;;;;;32.90;15.40;;;;;;;2.02;100.00;100422.60;106188;1267;97991;-81
2023/12/28 06:53:49;;;;;;;22.50;12.40;;;;;;;2.04;100.00;100419.84;106306;1264;96091;-78
2023/12/28 06:56:34;;;;;;;25.80;12.10;;;;;;;2.06;100.00;100414.91;105650;1267;102374;-80
2023/12/28 06:59:19;;;;;;;28.80;13.60;;;;;;;2.06;100.00;100406.23;105470;1264;100352;-79
2023/12/28 07:02:05;;;;;;;27.40;13.10;;;;;;;2.07;100.00;100404.37;105529;1263;97954;-79
2023/12/28 07:04:51;;;;;;;26.40;13.80;;;;;;;2.08;100.00;100398.88;105561;1267;97972;-80
2023/12/28 07:07:36;;;;;;;34.10;17.30;;;;;;;2.08;100.00;100396.88;105742;1266;97953;-81
2023/12/28 07:10:22;;;;;;;30.10;15.90;;;;;;;2.10;100.00;100394.84;105606;1262;103675;-80
2023/12/28 07:13:07;;;;;;;36.10;15.20;;;;;;;2.11;100.00;100396.34;105822;1264;99091;-79
2023/12/28 07:15:53;;;;;;;27.00;14.20;;;;;;;2.12;100.00;100393.20;105794;1262;99565;-80
2023/12/28 07:18:38;;;;;;;29.10;14.20;;;;;;;2.14;100.00;100394.80;105630;1264;97979;-79
2023/12/28 07:21:24;;;;;;;28.70;13.60;;;;;;;2.16;100.00;100385.27;105588;1262;97885;-80
2023/12/28 07:24:10;;;;;;;28.60;14.10;;;;;;;2.18;100.00;100384.09;105527;1266;101541;-80
2023/12/28 07:26:55;;;;;;;27.10;14.00;;;;;;;2.19;100.00;100378.59;105611;1267;99685;-80
2023/12/28 07:29:54;;;;;;;26.50;13.60;;;;;;;2.22;100.00;100376.42;105540;1266;98628;-88
2023/12/28 07:32:43;;;;;;;29.20;13.70;;;;;;;2.25;100.00;100365.61;105937;1267;97967;-84
2023/12/28 07:35:29;;;;;;;31.10;13.50;;;;;;;2.27;100.00;100360.46;105925;1266;97889;-85
2023/12/28 07:38:15;;;;;;;26.80;13.70;;;;;;;2.30;100.00;100367.74;105960;1262;102052;-83
2023/12/28 07:41:01;;;;;;;25.30;12.80;;;;;;;2.33;100.00;100382.08;106219;1267;100451;-84
2023/12/28 07:43:47;;;;;;;30.70;13.60;;;;;;;2.38;100.00;100387.15;106015;1266;98076;-84
2023/12/28 07:46:33;;;;;;;29.50;14.70;;;;;;;2.42;100.00;100387.48;105874;1265;98076;-83
2023/12/28 07:49:19;;;;;;;24.70;14.40;;;;;;;2.47;100.00;100401.64;105626;1265;99197;-79
2023/12/28 07:52:05;;;;;;;28.60;13.60;;;;;;;2.52;100.00;100408.23;106137;1264;102678;-88
2023/12/28 07:54:51;;;;;;;26.20;13.90;;;;;;;2.56;100.00;100415.73;105818;1264;99266;-79
2023/12/28 07:57:36;;;;;;;36.80;15.90;;;;;;;2.61;100.00;100416.52;105444;1267;98000;-79
2023/12/28 08:00:22;;;;;;;25.30;13.00;;;;;;;2.66;100.00;100404.06;105420;1267;98582;-79
2023/12/28 08:03:07;;;;;;;25.20;13.70;;;;;;;2.70;100.00;100402.12;105542;1262;97981;-78
2023/12/28 08:05:54;;;;;;;27.80;14.80;;;;;;;2.74;100.00;100401.61;105548;1267;101360;-79
2023/12/28 08:08:40;;;;;;;28.20;15.60;;;;;;;2.77;100.00;100403.92;106295;1262;99213;-79
2023/12/28 08:11:29;;;;;;;25.80;13.80;;;;;;;2.81;100.00;100395.34;105051;1264;99175;-78
2023/12/28 08:14:15;;;;;;;30.00;14.50;;;;;;;2.84;100.00;100382.83;105225;1267;98668;-78
2023/12/28 08:17:00;;;;;;;28.00;14.30;;;;;;;2.88;100.00;100384.56;105348;1262;98020;-79
2023/12/28 08:19:45;;;;;;;25.20;13.40;;;;;;;2.92;100.00;100375.02;105357;1267;103275;-78
2023/12/28 08:22:31;;;;;;;30.20;14.70;;;;;;;2.95;100.00;100375.39;105135;1264;99172;-78
2023/12/28 08:25:17;;;;;;;32.10;14.30;;;;;;;2.98;100.00;100374.58;105138;1267;99171;-78
2023/12/28 08:28:03;;;;;;;26.50;14.30;;;;;;;3.02;100.00;100380.42;105092;1267;98062;-79
2023/12/28 08:30:49;;;;;;;31.90;16.00;;;;;;;3.06;100.00;100381.40;105096;1262;98852;-78
2023/12/28 08:33:38;;;;;;;27.10;15.00;;;;;;;3.10;100.00;100385.05;105149;1267;102251;-79
2023/12/28 08:36:24;;;;;;;24.80;13.00;;;;;;;3.16;100.00;100386.70;105336;1267;100434;-78
2023/12/28 08:39:10;;;;;;;29.10;14.30;;;;;;;3.21;100.00;100392.00;105467;1266;97986;-78
2023/12/28 08:41:56;;;;;;;27.90;14.80;;;;;;;3.26;100.00;100395.30;105423;1267;97935;-77
2023/12/28 08:44:41;;;;;;;29.70;14.80;;;;;;;3.31;100.00;100394.77;105278;1265;98499;-78
2023/12/28 08:47:27;;;;;;;28.10;13.80;;;;;;;3.36;100.00;100391.13;105307;1264;101427;-77
2023/12/28 08:50:13;;;;;;;26.60;13.80;;;;;;;3.42;100.00;100387.67;105287;1263;100406;-78
2023/12/28 08:52:58;;;;;;;25.10;12.90;;;;;;;3.49;100.00;100388.28;105115;1267;98048;-78
2023/12/28 08:55:44;;;;;;;27.70;12.80;;;;;;;3.57;100.00;100386.09;105151;1265;97985;-78
2023/12/28 08:58:29;;;;;;;25.50;13.40;;;;;;;3.65;100.00;100383.70;105158;1264;97994;-77
2023/12/28 09:01:21;;;;;;;25.80;12.00;;;;;;;3.72;100.00;100386.68;105207;1265;101341;-77
2023/12/28 09:04:06;;;;;;;26.00;14.50;;;;;;;3.80;100.00;100386.96;105181;1265;100451;-78
2023/12/28 09:06:52;;;;;;;24.90;11.80;;;;;;;3.88;100.00;100382.52;105056;1264;98601;-78
2023/12/28 09:09:38;;;;;;;25.60;13.20;;;;;;;3.94;100.00;100377.84;104931;1269;98105;-78
2023/12/28 09:12:23;;;;;;;23.30;13.60;;;;;;;3.99;100.00;100389.20;105122;1264;98504;-77
2023/12/28 09:15:08;;;;;;;26.50;13.20;;;;;;;4.03;100.00;100389.27;105118;1267;102681;-77
2023/12/28 09:17:55;;;;;;;25.40;13.20;;;;;;;4.07;100.00;100389.08;105219;1262;99155;-78
2023/12/28 09:20:40;;;;;;;29.20;13.90;;;;;;;4.10;100.00;100393.25;105462;1266;98767;-78
2023/12/28 09:23:26;;;;;;;22.60;12.40;;;;;;;4.12;100.00;100396.20;105300;1267;96974;-78
2023/12/28 09:26:12;;;;;;;27.40;13.10;;;;;;;4.15;100.00;100399.30;105265;1262;97963;-78
2023/12/28 09:28:57;;;;;;;28.90;13.90;;;;;;;4.16;100.00;100402.50;105254;1264;101372;-79
2023/12/28 09:31:45;;;;;;;30.90;14.00;;;;;;;4.18;100.00;100408.61;105258;1265;100306;-78
2023/12/28 09:34:31;;;;;;;23.00;12.90;;;;;;;4.22;100.00;100401.76;105216;1265;107369;-78
2023/12/28 09:37:16;;;;;;;20.70;12.20;;;;;;;4.25;100.00;100397.73;105298;1262;97876;-78
2023/12/28 09:40:03;;;;;;;19.30;11.50;;;;;;;4.31;100.00;100382.61;105318;1267;98436;-78
2023/12/28 09:43:16;;;;;;;22.80;11.10;;;;;;;4.40;100.00;100378.15;105144;1267;102728;-78
2023/12/28 09:46:02;;;;;;;22.30;10.80;;;;;;;4.51;100.00;100378.48;105178;1267;99106;-78
2023/12/28 09:48:47;;;;;;;21.00;10.40;;;;;;;4.59;100.00;100385.02;105230;1265;98003;-78
2023/12/28 09:51:33;;;;;;;17.70;9.90;;;;;;;4.69;100.00;100388.52;105165;1263;97984;-77
2023/12/28 09:54:19;;;;;;;16.20;9.60;;;;;;;4.80;100.00;100395.73;105172;1262;98829;-77
2023/12/28 09:57:05;;;;;;;22.30;10.80;;;;;;;4.89;100.00;100398.02;105131;1266;102627;-77
2023/12/28 09:59:51;;;;;;;18.30;8.90;;;;;;;4.95;100.00;100394.34;106037;1264;99168;-78
2023/12/28 10:02:39;;;;;;;18.20;10.00;;;;;;;5.01;100.00;100389.44;105164;1267;98533;-78
2023/12/28 10:05:24;;;;;;;18.20;9.70;;;;;;;5.08;100.00;100387.50;105146;1266;98105;-77
2023/12/28 10:08:15;;;;;;;20.50;9.20;;;;;;;5.15;100.00;100387.66;105119;1262;98513;-78
2023/12/28 10:11:02;;;;;;;16.90;9.70;;;;;;;5.20;100.00;100393.80;105134;1262;101356;-77
2023/12/28 10:13:49;;;;;;;15.90;8.10;;;;;;;5.25;100.00;100402.20;105184;1262;99250;-78
2023/12/28 10:16:34;;;;;;;18.20;9.60;;;;;;;5.29;100.00;100410.71;105139;1267;98446;-77
2023/12/28 10:19:23;;;;;;;32.50;16.40;;;;;;;5.33;100.00;100401.28;105066;1264;97888;-78
2023/12/28 10:22:09;;;;;;;21.60;12.20;;;;;;;5.39;100.00;100399.41;105222;1267;97951;-78
2023/12/28 10:24:54;;;;;;;25.00;14.90;;;;;;;5.44;100.00;100387.62;105167;1263;102251;-77
2023/12/28 10:27:42;;;;;;;31.60;17.20;;;;;;;5.47;100.00;100386.34;105079;1265;100321;-77
2023/12/28 10:30:27;;;;;;;17.70;10.30;;;;;;;5.51;100.00;100388.79;104701;1268;98436;-78
2023/12/28 10:33:14;;;;;;;13.10;8.30;;;;;;;5.57;100.00;100379.04;105056;1269;98398;-78
2023/12/28 10:35:59;;;;;;;14.20;8.00;;;;;;;5.61;100.00;100375.54;105245;1264;98434;-78
2023/12/28 10:38:46;;;;;;;14.70;7.50;;;;;;;5.65;100.00;100385.58;105159;1263;102125;-78
2023/12/28 10:41:35;;;;;;;16.80;7.90;;;;;;;5.69;100.00;100385.00;105190;1263;99188;-79
2023/12/28 10:44:27;;;;;;;14.10;9.20;;;;;;;5.74;100.00;100382.66;105327;1267;99108;-78
2023/12/28 10:47:18;;;;;;;17.50;10.00;;;;;;;5.78;100.00;100387.33;107843;1263;97984;-79
2023/12/28 10:50:05;;;;;;;14.80;9.70;;;;;;;5.80;100.00;100388.23;105097;1267;98096;-78
2023/12/28 10:52:56;;;;;;;14.60;9.40;;;;;;;5.81;100.00;100393.41;105078;1270;101360;-78
2023/12/28 10:56:20;;;;;;;19.00;9.20;;;;;;;5.82;100.00;100397.09;105173;1265;99156;-78
2023/12/28 10:59:17;;;;;;;15.40;8.40;;;;;;;5.81;100.00;100401.38;105032;1272;97975;-77
2023/12/28 11:02:03;;;;;;;13.40;8.00;;;;;;;5.81;100.00;100393.59;105184;1267;97998;-78
2023/12/28 11:04:50;;;;;;;14.30;8.40;;;;;;;5.81;100.00;100388.66;104965;1267;98542;-77
2023/12/28 11:07:36;;;;;;;15.20;8.10;;;;;;;5.82;100.00;100385.01;105003;1266;102209;-77
2023/12/28 11:10:24;;;;;;;12.20;8.00;;;;;;;5.83;100.00;100382.07;105747;1265;101269;-78
2023/12/28 11:13:11;;;;;;;12.90;7.30;;;;;;;5.85;100.00;100385.29;105208;1267;97763;-77
2023/12/28 11:15:58;;;;;;;12.80;7.00;;;;;;;5.87;100.00;100383.99;104937;1265;98049;-76
2023/12/28 11:18:44;;;;;;;11.90;6.60;;;;;;;5.90;100.00;100377.83;105018;1264;98413;-78
2023/12/28 11:21:31;;;;;;;10.90;6.70;;;;;;;5.93;100.00;100382.79;105095;1267;101366;-78
2023/12/28 11:24:17;;;;;;;12.20;6.70;;;;;;;5.96;100.00;100388.48;105091;1267;99129;-77
2023/12/28 11:27:04;;;;;;;11.60;6.60;;;;;;;6.00;100.00;100384.20;105072;1265;97897;-78
2023/12/28 11:29:52;;;;;;;13.90;7.10;;;;;;;6.03;100.00;100384.90;105203;1267;97868;-78
2023/12/28 11:32:43;;;;;;;21.70;12.80;;;;;;;6.06;100.00;100380.41;105224;1267;98535;-78
2023/12/28 11:35:36;;;;;;;17.30;9.20;;;;;;;6.10;100.00;100377.04;105268;1267;101431;-78
2023/12/28 11:38:23;;;;;;;15.40;8.90;;;;;;;6.14;100.00;100378.79;105193;1267;100868;-77
2023/12/28 11:41:09;;;;;;;17.90;8.50;;;;;;;6.18;100.00;100376.73;105186;1265;98554;-79
2023/12/28 11:43:54;;;;;;;15.00;8.60;;;;;;;6.22;100.00;100380.69;105141;1263;98087;-78
2023/12/28 11:46:40;;;;;;;14.80;8.70;;;;;;;6.26;100.00;100376.23;105012;1268;97818;-78
2023/12/28 11:49:29;;;;;;;17.10;9.50;;;;;;;6.31;100.00;100374.52;105153;1267;101342;-78
2023/12/28 11:52:24;;;;;;;18.40;9.30;;;;;;;6.35;100.00;100371.02;105107;1267;99171;-79
2023/12/28 11:55:10;;;;;;;18.20;9.20;;;;;;;6.39;100.00;100376.73;105071;1264;98777;-78
2023/12/28 11:57:56;;;;;;;14.10;7.80;;;;;;;6.44;100.00;100375.38;105154;1267;98787;-78
2023/12/28 12:00:41;;;;;;;11.00;7.30;;;;;;;6.48;100.00;100370.66;105140;1267;97882;-79
2023/12/28 12:03:26;;;;;;;16.10;10.80;;;;;;;6.52;100.00;100377.98;104946;1264;101388;-77
2023/12/28 12:06:13;;;;;;;14.90;9.20;;;;;;;6.57;100.00;100383.31;105058;1267;99097;-77
2023/12/28 12:08:59;;;;;;;18.50;9.90;;;;;;;6.61;100.00;100379.79;105117;1267;99592;-77
2023/12/28 12:11:44;;;;;;;16.10;9.30;;;;;;;6.66;100.00;100374.52;104891;1265;97977;-77
2023/12/28 12:14:30;;;;;;;20.10;9.20;;;;;;;6.70;100.00;100377.45;104820;1265;99594;-78
2023/12/28 12:17:17;;;;;;;18.20;8.70;;;;;;;6.73;100.00;100381.02;105148;1265;102582;-78
2023/12/28 12:20:03;;;;;;;17.80;8.30;;;;;;;6.77;100.00;100384.63;105236;1268;100450;-79
2023/12/28 12:22:49;;;;;;;16.10;7.60;;;;;;;6.82;100.00;100390.11;105173;1266;99080;-78
2023/12/28 12:25:35;;;;;;;10.90;6.30;;;;;;;6.85;100.00;100384.59;105183;1266;97981;-77
2023/12/28 12:28:20;;;;;;;14.60;6.80;;;;;;;6.89;100.00;100379.39;105051;1267;99116;-78
2023/12/28 12:31:06;;;;;;;13.30;6.00;;;;;;;6.91;100.00;100374.92;105024;1262;101356;-78